Latest Weather Observations for Learmonth

IDW60801

Issued at 10:53 pm WST Tuesday 19 March 2019 (issued every 10 minutes, with the page automatically refreshed every 10 minutes)

About weather observations | Map of weather stations | Latest weather observations for WA | Other Formats
Station Details ID: 005007 Name: LEARMONTH AIRPORT Lat: -22.24 Lon: 114.10 Height: 5.0 m
Data from the previous 72 hours. | See also: Recent months at Learmonth
Date/Time
WST
Temp
°C
App
Temp
°C
Dew
Point
°C
Rel
Hum
%
Delta-T
°C
Wind Press
QNH
hPa
Press
MSL
hPa
Rain since
9am
mm
Dir  Spd
km/h
Gust
km/h
Spd
kts
Gust
kts
19/10:30pm 24.9 23.5 20.4 76 2.9 SSW 28 35 15 19 1009.4 1009.3 0.0
19/10:00pm 25.3 24.5 20.1 73 3.4 SW 24 32 13 17 1009.4 1009.3 0.0
19/09:30pm 25.7 24.5 20.0 71 3.7 SW 26 35 14 19 1009.2 1009.1 0.0
19/09:00pm 26.0 23.7 19.4 67 4.3 SW 30 43 16 23 1009.1 1009.0 0.0
19/08:30pm 26.1 23.5 19.5 67 4.3 SW 32 41 17 22 1008.8 1008.7 0.0
19/08:00pm 26.5 24.7 19.6 66 4.5 SW 28 37 15 20 1008.5 1008.4 0.0
19/07:30pm 26.9 25.2 19.8 65 4.6 SW 28 37 15 20 1008.2 1008.1 0.0
19/07:00pm 27.5 25.0 19.8 63 5.0 SW 32 39 17 21 1007.8 1007.7 0.0
19/06:30pm 28.5 26.8 19.7 59 5.7 SSW 28 35 15 19 1007.4 1007.3 0.0
19/06:00pm 30.4 28.1 19.4 51 7.2 SSW 30 39 16 21 1007.0 1006.9 0.0
19/05:30pm 32.1 29.7 19.0 45 8.5 SW 30 37 16 20 1007.1 1007.0 0.0
19/05:00pm 33.4 31.2 18.7 41 9.6 SW 28 37 15 20 1007.0 1006.9 0.0
19/04:30pm 34.6 32.6 18.2 37 10.7 SSW 26 35 14 19 1007.0 1006.9 0.0
19/04:00pm 34.9 32.8 18.0 36 11.0 SW 26 35 14 19 1007.0 1006.9 0.0
19/03:30pm 35.8 33.6 17.9 34 11.6 SW 26 33 14 18 1007.1 1007.0 0.0
19/03:00pm 35.6 33.4 17.8 35 11.6 SW 26 37 14 20 1007.2 1007.1 0.0
19/02:30pm 35.9 33.4 17.1 32 12.1 SSW 26 39 14 21 1007.4 1007.3 0.0
19/02:00pm 35.6 33.4 16.8 32 12.0 SW 24 35 13 19 1007.7 1007.6 0.0
19/01:30pm 35.5 32.5 16.8 33 12.0 SW 28 35 15 19 1008.2 1008.1 0.0
19/01:00pm 34.8 32.3 17.1 35 11.4 SW 26 43 14 23 1008.5 1008.4 0.0
19/12:30pm 34.8 32.5 17.5 35 11.1 SSW 26 37 14 20 1008.9 1008.8 0.0
19/12:00pm 34.1 32.1 17.3 36 10.8 SSW 24 35 13 19 1009.4 1009.3 0.0
19/11:30am 33.0 30.2 17.2 39 10.1 SSW 28 39 15 21 1009.7 1009.6 0.0
19/11:00am 32.5 29.8 17.5 40 9.6 SSW 28 37 15 20 1010.2 1010.1 0.0
19/10:30am 31.1 28.8 18.5 47 8.1 SSW 28 37 15 20 1010.4 1010.3 0.0
19/10:00am 30.7 28.8 19.4 51 7.4 SSW 28 35 15 19 1010.6 1010.5 0.0
19/09:30am 28.9 26.9 19.2 55 6.3 SSW 28 35 15 19 1010.8 1010.7 0.0
19/09:00am 27.3 24.7 19.6 62 5.0 SSW 32 41 17 22 1010.9 1010.8 0.0
19/08:30am 26.2 23.7 20.1 69 4.0 SW 33 41 18 22 1010.9 1010.8 0.0
19/08:00am 25.4 23.2 20.4 74 3.3 SSW 32 41 17 22 1010.5 1010.4 0.0
19/07:30am 23.9 22.6 20.6 82 2.2 SSW 28 37 15 20 1010.3 1010.2 0.0
19/07:00am 23.0 23.3 20.7 87 1.5 SSW 20 30 11 16 1010.2 1010.1 0.0
19/06:30am 22.7 23.0 20.8 89 1.2 SSW 20 28 11 15 1010.0 1009.9 0.0
19/06:00am 22.7 23.2 20.8 89 1.2 SSW 19 26 10 14 1009.7 1009.6 0.0
19/05:30am 22.9 22.8 20.8 88 1.4 SSW 22 28 12 15 1009.4 1009.3 0.0
19/05:00am 23.2 23.6 20.9 87 1.5 SSW 20 28 11 15 1009.0 1008.9 0.0
19/04:30am 23.5 23.9 21.0 86 1.6 SSW 20 26 11 14 1008.9 1008.8 0.0
19/04:00am 23.9 24.4 21.2 85 1.8 SSW 20 28 11 15 1009.0 1008.9 0.0
19/03:30am 24.1 24.6 20.8 82 2.2 SSW 19 24 10 13 1009.2 1009.1 0.0
19/03:00am 24.4 24.8 20.9 81 2.3 SW 20 28 11 15 1008.8 1008.7 0.0
19/02:30am 24.5 24.9 21.0 81 2.3 SW 20 32 11 17 1009.0 1008.9 0.0
19/02:00am 24.5 24.9 21.0 81 2.3 WSW 20 26 11 14 1009.3 1009.2 0.0
19/01:30am 24.4 25.5 21.3 83 2.0 SW 17 22 9 12 1009.7 1009.6 0.0
19/01:00am 24.4 25.3 21.5 84 1.9 SW 19 28 10 15 1009.9 1009.8 0.0
19/12:30am 24.4 24.8 21.7 85 1.8 SW 22 26 12 14 1010.1 1010.0 0.0
19/12:00am 24.6 25.1 21.9 85 1.8 SSW 22 28 12 15 1010.3 1010.2 0.0
 
Date/Time
WST
Temp
°C
App
Temp
°C
Dew
Point
°C
Rel
Hum
%
Delta-T
°C
Wind Press
QNH
hPa
Press
MSL
hPa
Rain since
9am
mm
Dir  Spd
km/h
Gust
km/h
Spd
kts
Gust
kts
18/11:30pm 24.8 24.9 21.9 84 1.9 SSW 24 30 13 16 1010.4 1010.3 0.0
18/11:00pm 25.1 26.2 21.2 79 2.6 S 17 20 9 11 1010.7 1010.6 0.0
18/10:30pm 25.9 26.1 20.5 72 3.5 SW 20 24 11 13 1010.4 1010.3 0.0
18/10:00pm 25.9 26.3 20.7 73 3.4 SW 19 24 10 13 1010.4 1010.3 0.0
18/09:30pm 25.9 26.5 21.1 75 3.2 SW 19 24 10 13 1010.4 1010.3 0.0
18/09:00pm 26.1 26.5 20.9 73 3.4 SW 20 26 11 14 1010.5 1010.4 0.0
18/08:30pm 26.5 26.0 20.8 71 3.8 SW 24 33 13 18 1009.9 1009.8 0.0
18/08:00pm 27.0 26.2 20.8 69 4.1 WSW 26 37 14 20 1009.5 1009.4 0.0
18/07:30pm 28.1 26.7 20.4 63 5.1 SW 28 35 15 19 1009.1 1009.0 0.0
18/07:00pm 29.5 27.6 18.6 52 7.0 SW 26 33 14 18 1008.6 1008.5 0.0
18/06:30pm 31.1 29.9 18.5 47 8.1 W 22 30 12 16 1008.2 1008.1 0.0
18/06:00pm 32.2 29.6 16.9 40 9.7 W 26 35 14 19 1007.5 1007.4 0.0
18/05:30pm 33.5 30.5 16.8 36 10.6 W 28 39 15 21 1007.1 1007.0 0.0
18/05:00pm 34.8 32.7 17.1 35 11.4 W 24 33 13 18 1006.9 1006.8 0.0
18/04:30pm 33.1 35.9 21.6 51 7.8 NE 9 17 5 9 1006.7 1006.6 0.0
18/04:00pm 33.2 34.9 22.3 52 7.5 NE 17 24 9 13 1006.4 1006.3 0.0
18/03:30pm 31.9 33.3 22.9 59 6.2 NE 20 26 11 14 1006.4 1006.3 0.0
18/03:00pm 31.9 33.3 22.6 58 6.4 NE 19 24 10 13 1006.8 1006.7 0.0
18/02:30pm 31.7 33.4 22.4 58 6.3 NE 17 22 9 12 1007.3 1007.2 0.0
18/02:00pm 31.8 32.6 22.5 58 6.4 NE 22 28 12 15 1007.7 1007.6 0.0
18/01:30pm 31.8 32.5 21.6 54 6.9 ENE 20 24 11 13 1007.8 1007.7 0.0
18/01:00pm 32.3 32.8 20.9 51 7.7 ENE 19 24 10 13 1008.1 1008.0 0.0
18/12:30pm 32.4 32.7 20.3 48 8.0 NE 19 26 10 14 1008.6 1008.5 0.0
18/12:00pm 32.2 32.8 21.1 52 7.5 NE 19 22 10 12 1009.1 1009.0 0.0
18/11:30am 31.9 33.1 21.4 53 7.1 ENE 17 24 9 13 1009.5 1009.4 0.0
18/11:00am 30.9 32.0 20.5 54 6.9 ENE 15 22 8 12 1010.0 1009.9 0.0
18/10:30am 31.2 31.1 19.5 49 7.7 ENE 19 24 10 13 1010.3 1010.2 0.0
18/10:00am 31.5 33.5 19.2 48 8.0 SW 7 15 4 8 1010.4 1010.3 0.0
18/09:30am 30.0 32.2 19.7 54 6.7 SW 7 13 4 7 1010.6 1010.5 0.0
18/09:00am 28.8 30.3 19.7 58 5.9 S 11 17 6 9 1010.8 1010.7 0.0
18/08:30am 27.5 28.0 20.1 64 4.8 SSW 17 22 9 12 1010.8 1010.7 0.0
18/08:00am 26.7 27.5 21.7 74 3.3 SSW 20 24 11 13 1010.6 1010.5 0.0
18/07:30am 25.7 26.5 21.8 79 2.6 SW 20 26 11 14 1010.6 1010.5 0.0
18/07:00am 25.0 26.1 21.9 83 2.1 SW 19 26 10 14 1010.2 1010.1 0.0
18/06:30am 24.7 26.1 21.0 80 2.4 SSW 15 19 8 10 1010.0 1009.9 0.0
18/06:00am 25.3 26.6 20.1 73 3.4 SSW 13 19 7 10 1009.7 1009.6 0.0
18/05:30am 26.2 26.5 19.6 67 4.3 SW 17 24 9 13 1009.3 1009.2 0.0
18/05:00am 26.6 27.1 19.2 64 4.8 WSW 15 17 8 9 1009.0 1008.9 0.0
18/04:30am 26.9 27.7 19.0 62 5.1 WSW 13 17 7 9 1008.9 1008.8 0.0
18/04:00am 26.7 27.9 18.3 60 5.3 SW 9 13 5 7 1009.1 1009.0 0.0
18/03:30am 26.7 28.1 18.6 61 5.2 WSW 9 13 5 7 1009.1 1009.0 0.0
18/03:00am 26.2 27.7 18.9 64 4.7 SW 9 13 5 7 1009.2 1009.1 0.0
18/02:30am 26.3 25.5 18.4 61 5.0 WSW 20 28 11 15 1009.4 1009.3 0.0
18/02:00am 25.9 24.5 18.8 65 4.5 SW 24 32 13 17 1009.6 1009.5 0.0
18/01:30am 27.0 26.4 18.8 60 5.3 SW 20 26 11 14 1010.5 1010.4 0.0
18/01:00am 26.9 27.9 19.5 64 4.8 W 13 19 7 10 1010.8 1010.7 0.0
18/12:30am 27.1 30.5 19.4 62 5.0 CALM 0 2 0 1 1011.1 1011.0 0.0
18/12:00am 27.2 27.4 19.3 62 5.1 S 17 20 9 11 1010.7 1010.6 0.0
 
Date/Time
WST
Temp
°C
App
Temp
°C
Dew
Point
°C
Rel
Hum
%
Delta-T
°C
Wind Press
QNH
hPa
Press
MSL
hPa
Rain since
9am
mm
Dir  Spd
km/h
Gust
km/h
Spd
kts
Gust
kts
17/11:30pm 27.4 26.9 19.2 61 5.3 SW 20 30 11 16 1010.1 1010.0 0.0
17/11:00pm 27.3 26.6 19.6 62 5.0 SW 22 30 12 16 1010.0 1009.9 0.0
17/10:30pm 27.2 26.4 20.0 64 4.7 SSW 24 32 13 17 1010.0 1009.9 0.0
17/10:00pm 27.8 26.8 19.6 61 5.3 SSW 24 32 13 17 1010.0 1009.9 0.0
17/09:30pm 28.4 26.0 18.2 54 6.5 SW 28 37 15 20 1009.7 1009.6 0.0
17/09:00pm 28.2 26.0 18.6 56 6.2 SW 28 39 15 21 1009.4 1009.3 0.0
17/08:30pm 28.0 26.2 19.5 60 5.5 SSW 28 37 15 20 1009.2 1009.1 0.0
17/08:00pm 28.7 26.7 19.1 56 6.2 SSW 28 35 15 19 1008.8 1008.7 0.0
17/07:30pm 29.5 27.4 18.9 53 6.9 SW 28 35 15 19 1008.0 1007.9 0.0
17/07:00pm 30.5 28.4 18.9 50 7.5 SW 28 35 15 19 1007.4 1007.3 0.0
17/06:30pm 32.7 28.8 16.9 38 10.0 SW 33 43 18 23 1006.9 1006.8 0.0
17/06:00pm 35.1 30.6 15.4 30 12.4 SW 33 43 18 23 1006.4 1006.3 0.0
17/05:30pm 36.9 32.6 15.4 28 13.5 SW 32 41 17 22 1006.4 1006.3 0.0
17/05:00pm 38.0 33.7 14.5 24 14.7 WSW 30 39 16 21 1006.2 1006.1 0.0
17/04:30pm 38.3 34.0 15.4 25 14.5 W 32 44 17 24 1006.0 1005.9 0.0
17/04:00pm 39.4 35.7 15.1 24 15.4 W 28 43 15 23 1005.9 1005.8 0.0
17/03:59pm 39.6 35.8 14.6 23 15.7 W 28 43 15 23 1005.8 1005.7 0.0
17/03:30pm 39.8 37.7 11.0 18 17.2 N 13 19 7 10 1006.2 1006.1 0.0
17/03:00pm 39.4 37.3 12.3 20 16.5 NE 15 20 8 11 1006.2 1006.1 0.0
17/02:30pm 40.4 38.5 13.1 20 16.9 NE 15 20 8 11 1006.6 1006.5 0.0
17/02:00pm 39.2 37.0 12.1 20 16.5 E 15 20 8 11 1007.1 1007.0 0.0
17/01:30pm 39.3 36.8 12.2 20 16.5 ENE 17 24 9 13 1007.5 1007.4 0.0
17/01:00pm 39.6 37.4 10.8 18 17.2 E 13 22 7 12 1008.1 1008.0 0.0
17/12:30pm 37.6 35.9 13.6 24 14.8 E 15 20 8 11 1008.4 1008.3 0.0
17/12:00pm 37.0 35.4 14.9 27 13.9 E 17 20 9 11 1008.7 1008.6 0.0
17/11:30am 35.8 35.0 17.0 32 12.1 E 17 22 9 12 1009.0 1008.9 0.0
17/11:00am 35.3 34.5 17.0 33 11.7 E 17 24 9 13 1009.3 1009.2 0.0
17/10:30am 35.6 34.5 17.3 33 11.8 SE 19 22 10 12 1009.5 1009.4 0.0
17/10:00am 35.0 34.5 17.7 36 11.2 SE 17 24 9 13 1010.0 1009.9 0.0
17/09:30am 33.6 32.3 17.3 37 10.4 SE 20 28 11 15 1010.0 1009.9 0.0
17/09:00am 32.8 31.3 17.8 40 9.7 SSE 22 30 12 16 1010.0 1009.9 0.0
17/08:30am 31.3 30.5 17.2 42 8.9 S 17 22 9 12 1010.2 1010.1 0.0
17/08:00am 30.4 30.4 18.2 48 7.8 S 15 24 8 13 1010.0 1009.9 0.0
17/07:30am 29.8 29.6 17.6 48 7.7 S 15 20 8 11 1009.9 1009.8 0.0
17/07:00am 29.2 28.9 17.4 49 7.5 SSE 15 19 8 10 1009.4 1009.3 0.0
17/06:30am 28.3 27.4 16.9 50 7.1 S 17 22 9 12 1009.6 1009.5 0.0
17/06:00am 28.1 27.5 15.7 46 7.6 SSW 13 17 7 9 1009.2 1009.1 0.0
17/05:30am 28.0 25.8 15.0 45 7.9 SSE 20 26 11 14 1008.4 1008.3 0.0
17/05:00am 28.3 25.7 14.9 44 8.1 S 22 28 12 15 1008.7 1008.6 0.0
17/04:30am 28.0 24.3 15.0 45 7.9 S 28 37 15 20 1008.6 1008.5 0.0
17/04:00am 27.1 24.2 15.1 47 7.3 SW 24 32 13 17 1009.1 1009.0 0.0
17/03:30am 26.7 23.7 14.8 48 7.2 SSW 24 33 13 18 1008.9 1008.8 0.0
17/03:00am 27.5 24.0 14.5 45 7.8 SW 26 33 14 18 1009.1 1009.0 0.0
17/02:30am 27.8 24.7 15.5 47 7.5 SW 26 32 14 17 1009.4 1009.3 0.0
17/02:00am 27.2 25.6 15.9 50 6.9 SW 19 24 10 13 1009.4 1009.3 0.0
17/01:30am 27.9 26.4 15.2 46 7.7 SW 17 22 9 12 1009.6 1009.5 0.0
17/01:00am 28.0 26.5 14.3 43 8.2 SSW 15 17 8 9 1009.7 1009.6 0.0
17/12:30am 27.9 26.4 14.2 43 8.2 SW 15 17 8 9 1009.5 1009.4 0.0
17/12:00am 28.1 26.2 14.3 42 8.3 SSW 17 20 9 11 1009.4 1009.3 0.0
 
Date/Time
WST
Temp
°C
App
Temp
°C
Dew
Point
°C
Rel
Hum
%
Delta-T
°C
Wind Press
QNH
hPa
Press
MSL
hPa
Rain since
9am
mm
Dir  Spd
km/h
Gust
km/h
Spd
kts
Gust
kts
16/11:30pm 28.4 27.2 15.0 44 8.1 SW 15 19 8 10 1009.6 1009.5 0.0
16/11:00pm 28.8 27.0 16.0 45 7.9 SSW 20 26 11 14 1009.5 1009.4 0.0

Other formats

Comma delimited format used in spreadsheet applications
http://www.bom.gov.au/fwo/IDW60801/IDW60801.94302.axf

JavaScript Object Notation format (JSON) in row-major order
http://www.bom.gov.au/fwo/IDW60801/IDW60801.94302.json

Data quality

Most of these data are generated automatically and are frequently updated. Quality checks on data are not normally performed. It is possible for incorrect values to appear. Refer to information at About Latest Weather Observations and please check the disclaimer before using these data.